sensor_id;sensor_type;location;lat;lon;timestamp;temperature;humidity
28530;DHT22;15737;49.760;6.632;2023-03-22T00:01:58;8.90;99.90
28530;DHT22;15737;49.760;6.632;2023-03-22T00:04:23;8.90;99.90
28530;DHT22;15737;49.760;6.632;2023-03-22T00:06:50;8.90;99.90
28530;DHT22;15737;49.760;6.632;2023-03-22T00:09:15;8.90;99.90
28530;DHT22;15737;49.760;6.632;2023-03-22T00:11:41;8.90;99.90
28530;DHT22;15737;49.760;6.632;2023-03-22T00:14:06;8.90;99.90
28530;DHT22;15737;49.760;6.632;2023-03-22T00:16:32;9.00;99.90
28530;DHT22;15737;49.760;6.632;2023-03-22T00:18:58;9.10;99.90
28530;DHT22;15737;49.760;6.632;2023-03-22T00:21:23;9.20;99.90
28530;DHT22;15737;49.760;6.632;2023-03-22T00:23:49;9.30;99.90
28530;DHT22;15737;49.760;6.632;2023-03-22T00:26:15;9.50;99.90
28530;DHT22;15737;49.760;6.632;2023-03-22T00:28:41;9.60;99.90
28530;DHT22;15737;49.760;6.632;2023-03-22T00:31:07;9.60;99.90
28530;DHT22;15737;49.760;6.632;2023-03-22T00:33:33;9.60;99.90
28530;DHT22;15737;49.760;6.632;2023-03-22T00:36:05;9.60;99.90
28530;DHT22;15737;49.760;6.632;2023-03-22T00:38:31;9.60;99.90
28530;DHT22;15737;49.760;6.632;2023-03-22T00:43:33;9.70;99.90
28530;DHT22;15737;49.760;6.632;2023-03-22T00:45:58;9.70;99.90
28530;DHT22;15737;49.760;6.632;2023-03-22T00:48:24;9.70;99.90
28530;DHT22;15737;49.760;6.632;2023-03-22T00:50:49;9.70;99.90
28530;DHT22;15737;49.760;6.632;2023-03-22T00:53:15;9.60;99.90
28530;DHT22;15737;49.760;6.632;2023-03-22T00:55:41;9.60;99.90
28530;DHT22;15737;49.760;6.632;2023-03-22T00:58:22;9.60;99.90
28530;DHT22;15737;49.760;6.632;2023-03-22T01:00:47;9.60;99.90
28530;DHT22;15737;49.760;6.632;2023-03-22T01:03:13;9.70;99.90
28530;DHT22;15737;49.760;6.632;2023-03-22T01:05:40;9.70;99.90
28530;DHT22;15737;49.760;6.632;2023-03-22T01:08:09;9.70;99.90
28530;DHT22;15737;49.760;6.632;2023-03-22T01:10:39;9.70;99.90
28530;DHT22;15737;49.760;6.632;2023-03-22T01:13:19;9.70;99.90
28530;DHT22;15737;49.760;6.632;2023-03-22T01:15:45;9.70;99.90
28530;DHT22;15737;49.760;6.632;2023-03-22T01:18:13;9.80;99.90
28530;DHT22;15737;49.760;6.632;2023-03-22T01:20:39;9.80;99.90
28530;DHT22;15737;49.760;6.632;2023-03-22T01:23:04;9.70;99.90
28530;DHT22;15737;49.760;6.632;2023-03-22T01:25:30;9.70;99.90
28530;DHT22;15737;49.760;6.632;2023-03-22T01:27:56;9.70;99.90
28530;DHT22;15737;49.760;6.632;2023-03-22T01:30:21;9.60;99.90
28530;DHT22;15737;49.760;6.632;2023-03-22T01:32:47;9.60;99.90
28530;DHT22;15737;49.760;6.632;2023-03-22T01:35:12;9.50;99.90
28530;DHT22;15737;49.760;6.632;2023-03-22T01:37:38;9.60;99.90
28530;DHT22;15737;49.760;6.632;2023-03-22T01:40:12;9.50;99.90
28530;DHT22;15737;49.760;6.632;2023-03-22T01:42:38;9.50;99.90
28530;DHT22;15737;49.760;6.632;2023-03-22T01:47:40;9.30;99.90
28530;DHT22;15737;49.760;6.632;2023-03-22T01:50:07;9.30;99.90
28530;DHT22;15737;49.760;6.632;2023-03-22T01:52:46;9.30;99.90
28530;DHT22;15737;49.760;6.632;2023-03-22T01:55:12;9.30;99.90
28530;DHT22;15737;49.760;6.632;2023-03-22T01:57:39;9.40;99.90
28530;DHT22;15737;49.760;6.632;2023-03-22T02:00:08;9.40;99.90
28530;DHT22;15737;49.760;6.632;2023-03-22T02:02:37;9.50;99.90
28530;DHT22;15737;49.760;6.632;2023-03-22T02:05:03;9.50;99.90
28530;DHT22;15737;49.760;6.632;2023-03-22T02:07:44;9.50;99.90
28530;DHT22;15737;49.760;6.632;2023-03-22T02:10:19;9.50;99.90
28530;DHT22;15737;49.760;6.632;2023-03-22T02:12:56;9.40;99.90
28530;DHT22;15737;49.760;6.632;2023-03-22T02:15:23;9.40;99.90
28530;DHT22;15737;49.760;6.632;2023-03-22T02:26:27;9.40;99.90
28530;DHT22;15737;49.760;6.632;2023-03-22T02:29:11;9.40;99.90
28530;DHT22;15737;49.760;6.632;2023-03-22T02:39:52;9.10;99.90
28530;DHT22;15737;49.760;6.632;2023-03-22T02:42:35;9.00;99.90
28530;DHT22;15737;49.760;6.632;2023-03-22T02:48:12;9.10;99.90
28530;DHT22;15737;49.760;6.632;2023-03-22T02:50:46;9.20;99.90
28530;DHT22;15737;49.760;6.632;2023-03-22T02:53:19;9.20;99.90
28530;DHT22;15737;49.760;6.632;2023-03-22T02:56:26;9.20;99.90
28530;DHT22;15737;49.760;6.632;2023-03-22T02:58:57;9.20;99.90
28530;DHT22;15737;49.760;6.632;2023-03-22T03:01:37;9.20;99.90
28530;DHT22;15737;49.760;6.632;2023-03-22T03:04:08;9.20;99.90
28530;DHT22;15737;49.760;6.632;2023-03-22T03:06:39;9.30;99.90
28530;DHT22;15737;49.760;6.632;2023-03-22T03:09:12;9.30;99.90
28530;DHT22;15737;49.760;6.632;2023-03-22T03:11:49;9.30;99.90
28530;DHT22;15737;49.760;6.632;2023-03-22T03:14:31;9.30;99.90
28530;DHT22;15737;49.760;6.632;2023-03-22T03:17:03;9.30;99.90
28530;DHT22;15737;49.760;6.632;2023-03-22T03:19:47;9.30;99.90
28530;DHT22;15737;49.760;6.632;2023-03-22T03:22:41;9.30;99.90
28530;DHT22;15737;49.760;6.632;2023-03-22T03:25:31;9.30;99.90
28530;DHT22;15737;49.760;6.632;2023-03-22T03:28:08;9.20;99.90
28530;DHT22;15737;49.760;6.632;2023-03-22T03:31:15;9.20;99.90
28530;DHT22;15737;49.760;6.632;2023-03-22T03:34:23;9.10;99.90
28530;DHT22;15737;49.760;6.632;2023-03-22T03:37:04;9.10;99.90
28530;DHT22;15737;49.760;6.632;2023-03-22T03:39:34;9.10;99.90
28530;DHT22;15737;49.760;6.632;2023-03-22T03:42:02;9.10;99.90
28530;DHT22;15737;49.760;6.632;2023-03-22T03:44:30;9.10;99.90
28530;DHT22;15737;49.760;6.632;2023-03-22T03:46:57;9.20;99.90
28530;DHT22;15737;49.760;6.632;2023-03-22T03:49:23;9.30;99.90
28530;DHT22;15737;49.760;6.632;2023-03-22T03:51:51;9.30;99.90
28530;DHT22;15737;49.760;6.632;2023-03-22T03:54:18;9.40;99.90
28530;DHT22;15737;49.760;6.632;2023-03-22T03:56:44;9.50;99.90
28530;DHT22;15737;49.760;6.632;2023-03-22T03:59:12;9.60;99.90
28530;DHT22;15737;49.760;6.632;2023-03-22T04:01:40;9.60;99.90
28530;DHT22;15737;49.760;6.632;2023-03-22T04:04:23;9.70;99.90
28530;DHT22;15737;49.760;6.632;2023-03-22T04:06:56;9.70;99.90
28530;DHT22;15737;49.760;6.632;2023-03-22T04:09:24;9.60;99.90
28530;DHT22;15737;49.760;6.632;2023-03-22T04:11:51;9.60;99.90
28530;DHT22;15737;49.760;6.632;2023-03-22T04:14:16;9.60;99.90
28530;DHT22;15737;49.760;6.632;2023-03-22T04:16:42;9.60;99.90
28530;DHT22;15737;49.760;6.632;2023-03-22T04:19:07;9.70;99.90
28530;DHT22;15737;49.760;6.632;2023-03-22T04:21:33;9.70;99.90
28530;DHT22;15737;49.760;6.632;2023-03-22T04:23:58;9.70;99.90
28530;DHT22;15737;49.760;6.632;2023-03-22T04:26:24;9.70;99.90
28530;DHT22;15737;49.760;6.632;2023-03-22T04:28:49;9.70;99.90
28530;DHT22;15737;49.760;6.632;2023-03-22T04:31:14;9.70;99.90
28530;DHT22;15737;49.760;6.632;2023-03-22T04:33:40;9.70;99.90
28530;DHT22;15737;49.760;6.632;2023-03-22T04:36:07;9.80;99.90
28530;DHT22;15737;49.760;6.632;2023-03-22T04:38:35;9.80;99.90
28530;DHT22;15737;49.760;6.632;2023-03-22T04:41:01;9.80;99.90
28530;DHT22;15737;49.760;6.632;2023-03-22T04:43:27;9.80;99.90
28530;DHT22;15737;49.760;6.632;2023-03-22T04:46:07;9.80;99.90
28530;DHT22;15737;49.760;6.632;2023-03-22T04:48:37;9.80;99.90
28530;DHT22;15737;49.760;6.632;2023-03-22T04:51:08;9.80;99.90
28530;DHT22;15737;49.760;6.632;2023-03-22T04:53:35;9.80;99.90
28530;DHT22;15737;49.760;6.632;2023-03-22T04:56:05;9.80;99.90
28530;DHT22;15737;49.760;6.632;2023-03-22T04:58:33;9.80;99.90
28530;DHT22;15737;49.760;6.632;2023-03-22T05:01:00;9.80;99.90
28530;DHT22;15737;49.760;6.632;2023-03-22T05:03:26;9.80;99.90
28530;DHT22;15737;49.760;6.632;2023-03-22T05:05:54;9.80;99.90
28530;DHT22;15737;49.760;6.632;2023-03-22T05:08:21;9.80;99.90
28530;DHT22;15737;49.760;6.632;2023-03-22T05:10:49;9.70;99.90
28530;DHT22;15737;49.760;6.632;2023-03-22T05:13:17;9.70;99.90
28530;DHT22;15737;49.760;6.632;2023-03-22T05:15:42;9.70;99.90
28530;DHT22;15737;49.760;6.632;2023-03-22T05:18:08;9.70;99.90
28530;DHT22;15737;49.760;6.632;2023-03-22T05:20:34;9.70;99.90
28530;DHT22;15737;49.760;6.632;2023-03-22T05:22:59;9.70;99.90
28530;DHT22;15737;49.760;6.632;2023-03-22T05:25:27;9.80;99.90
28530;DHT22;15737;49.760;6.632;2023-03-22T05:28:05;9.70;99.90
28530;DHT22;15737;49.760;6.632;2023-03-22T05:30:31;9.70;99.90
28530;DHT22;15737;49.760;6.632;2023-03-22T05:32:58;9.80;99.90
28530;DHT22;15737;49.760;6.632;2023-03-22T05:35:25;9.80;99.90
28530;DHT22;15737;49.760;6.632;2023-03-22T05:37:51;9.70;99.90
28530;DHT22;15737;49.760;6.632;2023-03-22T05:40:17;9.70;99.90
28530;DHT22;15737;49.760;6.632;2023-03-22T05:42:56;9.70;99.90
28530;DHT22;15737;49.760;6.632;2023-03-22T05:45:22;9.70;99.90
28530;DHT22;15737;49.760;6.632;2023-03-22T05:47:48;9.70;99.90
28530;DHT22;15737;49.760;6.632;2023-03-22T05:50:16;9.70;99.90
28530;DHT22;15737;49.760;6.632;2023-03-22T05:52:42;9.80;99.90
28530;DHT22;15737;49.760;6.632;2023-03-22T05:55:09;9.80;99.90
28530;DHT22;15737;49.760;6.632;2023-03-22T05:57:37;9.80;99.90
28530;DHT22;15737;49.760;6.632;2023-03-22T06:00:18;9.80;99.90
28530;DHT22;15737;49.760;6.632;2023-03-22T06:02:47;9.90;99.90
28530;DHT22;15737;49.760;6.632;2023-03-22T06:05:14;9.90;99.90
28530;DHT22;15737;49.760;6.632;2023-03-22T06:10:14;9.90;99.90
28530;DHT22;15737;49.760;6.632;2023-03-22T06:12:49;9.90;99.90
28530;DHT22;15737;49.760;6.632;2023-03-22T06:15:15;9.90;99.90
28530;DHT22;15737;49.760;6.632;2023-03-22T06:17:40;9.90;99.90
28530;DHT22;15737;49.760;6.632;2023-03-22T06:20:08;9.90;99.90
28530;DHT22;15737;49.760;6.632;2023-03-22T06:22:35;10.00;99.90
28530;DHT22;15737;49.760;6.632;2023-03-22T06:25:01;10.10;99.90
28530;DHT22;15737;49.760;6.632;2023-03-22T06:27:27;10.10;99.90
28530;DHT22;15737;49.760;6.632;2023-03-22T06:29:52;10.10;99.90
28530;DHT22;15737;49.760;6.632;2023-03-22T06:32:19;10.20;99.90
28530;DHT22;15737;49.760;6.632;2023-03-22T06:34:48;10.30;99.90
28530;DHT22;15737;49.760;6.632;2023-03-22T06:37:13;10.30;99.90
28530;DHT22;15737;49.760;6.632;2023-03-22T06:39:42;10.40;99.90
28530;DHT22;15737;49.760;6.632;2023-03-22T06:42:08;10.40;99.90
28530;DHT22;15737;49.760;6.632;2023-03-22T06:44:34;10.50;99.90
28530;DHT22;15737;49.760;6.632;2023-03-22T06:46:59;10.50;99.90
28530;DHT22;15737;49.760;6.632;2023-03-22T06:49:25;10.60;99.90
28530;DHT22;15737;49.760;6.632;2023-03-22T06:51:52;10.60;99.90
28530;DHT22;15737;49.760;6.632;2023-03-22T06:54:18;10.70;99.90
28530;DHT22;15737;49.760;6.632;2023-03-22T06:56:43;10.80;99.90
28530;DHT22;15737;49.760;6.632;2023-03-22T06:59:09;10.70;99.90
28530;DHT22;15737;49.760;6.632;2023-03-22T07:01:34;10.60;99.90
28530;DHT22;15737;49.760;6.632;2023-03-22T07:04:00;10.60;99.90
28530;DHT22;15737;49.760;6.632;2023-03-22T07:06:38;10.50;99.90
28530;DHT22;15737;49.760;6.632;2023-03-22T07:09:04;10.50;99.90
28530;DHT22;15737;49.760;6.632;2023-03-22T07:11:30;10.50;99.90
28530;DHT22;15737;49.760;6.632;2023-03-22T07:13:55;10.50;99.90
28530;DHT22;15737;49.760;6.632;2023-03-22T07:16:21;10.50;99.90
28530;DHT22;15737;49.760;6.632;2023-03-22T07:18:47;10.50;99.90
28530;DHT22;15737;49.760;6.632;2023-03-22T07:21:13;10.50;99.90
28530;DHT22;15737;49.760;6.632;2023-03-22T07:23:38;10.50;99.90
28530;DHT22;15737;49.760;6.632;2023-03-22T07:26:04;10.60;99.90
28530;DHT22;15737;49.760;6.632;2023-03-22T07:28:30;10.60;99.90
28530;DHT22;15737;49.760;6.632;2023-03-22T07:31:05;10.70;99.90
28530;DHT22;15737;49.760;6.632;2023-03-22T07:35:59;10.80;99.90
28530;DHT22;15737;49.760;6.632;2023-03-22T07:38:25;10.90;99.90
28530;DHT22;15737;49.760;6.632;2023-03-22T07:40:52;10.90;99.90
28530;DHT22;15737;49.760;6.632;2023-03-22T07:43:20;11.00;99.90
28530;DHT22;15737;49.760;6.632;2023-03-22T07:45:47;11.00;99.90
28530;DHT22;15737;49.760;6.632;2023-03-22T07:48:29;11.00;99.90
28530;DHT22;15737;49.760;6.632;2023-03-22T07:50:56;11.10;99.90
28530;DHT22;15737;49.760;6.632;2023-03-22T07:53:21;11.20;99.90
28530;DHT22;15737;49.760;6.632;2023-03-22T07:55:47;11.30;99.90
28530;DHT22;15737;49.760;6.632;2023-03-22T07:58:12;11.40;99.90
28530;DHT22;15737;49.760;6.632;2023-03-22T08:00:38;11.60;99.90
28530;DHT22;15737;49.760;6.632;2023-03-22T08:03:03;11.90;99.90
28530;DHT22;15737;49.760;6.632;2023-03-22T08:05:29;12.20;99.90
28530;DHT22;15737;49.760;6.632;2023-03-22T08:07:54;12.30;99.90
28530;DHT22;15737;49.760;6.632;2023-03-22T08:10:21;12.30;99.90
28530;DHT22;15737;49.760;6.632;2023-03-22T08:12:46;12.30;99.90
28530;DHT22;15737;49.760;6.632;2023-03-22T08:15:13;12.30;99.90
28530;DHT22;15737;49.760;6.632;2023-03-22T08:17:42;12.20;99.90
28530;DHT22;15737;49.760;6.632;2023-03-22T08:20:08;12.10;99.90
28530;DHT22;15737;49.760;6.632;2023-03-22T08:22:36;12.00;99.90
28530;DHT22;15737;49.760;6.632;2023-03-22T08:25:03;12.10;99.90
28530;DHT22;15737;49.760;6.632;2023-03-22T08:27:29;12.20;99.90
28530;DHT22;15737;49.760;6.632;2023-03-22T08:29:55;12.30;99.90
28530;DHT22;15737;49.760;6.632;2023-03-22T08:32:22;12.40;99.90
28530;DHT22;15737;49.760;6.632;2023-03-22T08:34:47;12.40;99.90
28530;DHT22;15737;49.760;6.632;2023-03-22T08:37:13;12.50;99.90
28530;DHT22;15737;49.760;6.632;2023-03-22T08:39:39;12.40;99.90
28530;DHT22;15737;49.760;6.632;2023-03-22T08:42:07;12.40;99.90
28530;DHT22;15737;49.760;6.632;2023-03-22T08:44:45;12.30;99.90
28530;DHT22;15737;49.760;6.632;2023-03-22T08:47:11;12.50;99.90
28530;DHT22;15737;49.760;6.632;2023-03-22T08:49:36;13.00;99.90
28530;DHT22;15737;49.760;6.632;2023-03-22T08:52:02;12.90;99.90
28530;DHT22;15737;49.760;6.632;2023-03-22T08:54:27;12.80;99.90
28530;DHT22;15737;49.760;6.632;2023-03-22T08:56:57;12.70;99.90
28530;DHT22;15737;49.760;6.632;2023-03-22T08:59:23;13.20;99.90
28530;DHT22;15737;49.760;6.632;2023-03-22T09:01:48;13.80;99.90
28530;DHT22;15737;49.760;6.632;2023-03-22T09:04:14;14.60;99.90
28530;DHT22;15737;49.760;6.632;2023-03-22T09:06:40;14.80;99.90
28530;DHT22;15737;49.760;6.632;2023-03-22T09:09:11;15.10;99.90
28530;DHT22;15737;49.760;6.632;2023-03-22T09:11:37;14.90;99.90
28530;DHT22;15737;49.760;6.632;2023-03-22T09:14:04;14.50;99.90
28530;DHT22;15737;49.760;6.632;2023-03-22T09:16:30;14.00;99.90
28530;DHT22;15737;49.760;6.632;2023-03-22T09:18:56;13.60;99.90
28530;DHT22;15737;49.760;6.632;2023-03-22T09:21:22;13.30;99.90
28530;DHT22;15737;49.760;6.632;2023-03-22T09:23:47;13.30;99.90
28530;DHT22;15737;49.760;6.632;2023-03-22T09:26:14;13.60;99.90
28530;DHT22;15737;49.760;6.632;2023-03-22T09:28:40;13.90;99.90
28530;DHT22;15737;49.760;6.632;2023-03-22T09:31:08;14.50;99.90
28530;DHT22;15737;49.760;6.632;2023-03-22T09:33:35;15.00;99.90
28530;DHT22;15737;49.760;6.632;2023-03-22T09:38:35;14.80;99.90
28530;DHT22;15737;49.760;6.632;2023-03-22T09:41:06;14.50;99.90
28530;DHT22;15737;49.760;6.632;2023-03-22T09:43:40;14.40;99.90
28530;DHT22;15737;49.760;6.632;2023-03-22T09:46:17;14.30;99.90
28530;DHT22;15737;49.760;6.632;2023-03-22T09:48:46;14.20;99.90
28530;DHT22;15737;49.760;6.632;2023-03-22T09:53:43;13.50;99.90
28530;DHT22;15737;49.760;6.632;2023-03-22T09:56:17;13.40;99.90
28530;DHT22;15737;49.760;6.632;2023-03-22T09:58:47;13.60;99.90
28530;DHT22;15737;49.760;6.632;2023-03-22T10:06:34;14.30;99.90
28530;DHT22;15737;49.760;6.632;2023-03-22T10:14:36;14.00;99.90
28530;DHT22;15737;49.760;6.632;2023-03-22T10:17:11;14.20;99.90
28530;DHT22;15737;49.760;6.632;2023-03-22T10:19:54;14.40;99.90
28530;DHT22;15737;49.760;6.632;2023-03-22T10:22:28;14.60;99.90
28530;DHT22;15737;49.760;6.632;2023-03-22T10:24:55;14.50;99.90
28530;DHT22;15737;49.760;6.632;2023-03-22T10:27:23;14.30;99.90
28530;DHT22;15737;49.760;6.632;2023-03-22T10:30:26;14.30;99.90
28530;DHT22;15737;49.760;6.632;2023-03-22T10:35:22;14.60;99.90
28530;DHT22;15737;49.760;6.632;2023-03-22T10:37:48;14.90;99.90
28530;DHT22;15737;49.760;6.632;2023-03-22T10:40:23;14.80;99.90
28530;DHT22;15737;49.760;6.632;2023-03-22T10:42:53;14.70;99.90
28530;DHT22;15737;49.760;6.632;2023-03-22T10:45:20;14.80;99.90
28530;DHT22;15737;49.760;6.632;2023-03-22T10:50:38;14.50;99.90
28530;DHT22;15737;49.760;6.632;2023-03-22T10:55:48;14.50;99.90
28530;DHT22;15737;49.760;6.632;2023-03-22T10:58:19;14.80;99.90
28530;DHT22;15737;49.760;6.632;2023-03-22T11:00:49;15.40;99.90
28530;DHT22;15737;49.760;6.632;2023-03-22T11:06:10;17.50;99.90
28530;DHT22;15737;49.760;6.632;2023-03-22T11:11:20;17.90;99.90
28530;DHT22;15737;49.760;6.632;2023-03-22T11:13:53;17.90;98.80
28530;DHT22;15737;49.760;6.632;2023-03-22T11:16:19;17.40;98.70
28530;DHT22;15737;49.760;6.632;2023-03-22T11:18:45;16.90;99.50
28530;DHT22;15737;49.760;6.632;2023-03-22T11:21:12;16.70;99.30
28530;DHT22;15737;49.760;6.632;2023-03-22T11:26:15;16.20;99.90
28530;DHT22;15737;49.760;6.632;2023-03-22T11:28:49;16.10;99.90
28530;DHT22;15737;49.760;6.632;2023-03-22T11:31:17;16.10;99.90
28530;DHT22;15737;49.760;6.632;2023-03-22T11:34:00;16.10;99.90
28530;DHT22;15737;49.760;6.632;2023-03-22T11:36:26;15.60;99.90
28530;DHT22;15737;49.760;6.632;2023-03-22T11:38:58;15.20;99.90
28530;DHT22;15737;49.760;6.632;2023-03-22T11:44:14;15.20;99.90
28530;DHT22;15737;49.760;6.632;2023-03-22T11:46:49;15.40;99.90
28530;DHT22;15737;49.760;6.632;2023-03-22T11:49:16;15.60;99.90
28530;DHT22;15737;49.760;6.632;2023-03-22T11:51:42;15.90;99.90
28530;DHT22;15737;49.760;6.632;2023-03-22T11:54:29;16.00;99.90
28530;DHT22;15737;49.760;6.632;2023-03-22T11:57:15;16.00;99.90
28530;DHT22;15737;49.760;6.632;2023-03-22T12:02:34;15.80;99.70
28530;DHT22;15737;49.760;6.632;2023-03-22T12:05:22;15.80;99.80
28530;DHT22;15737;49.760;6.632;2023-03-22T12:08:11;15.80;99.90
28530;DHT22;15737;49.760;6.632;2023-03-22T12:10:44;15.70;99.90
28530;DHT22;15737;49.760;6.632;2023-03-22T12:13:22;15.60;99.90
28530;DHT22;15737;49.760;6.632;2023-03-22T12:15:54;15.80;99.90
28530;DHT22;15737;49.760;6.632;2023-03-22T12:18:35;15.80;99.90
28530;DHT22;15737;49.760;6.632;2023-03-22T12:21:02;16.70;99.70
28530;DHT22;15737;49.760;6.632;2023-03-22T12:23:32;17.30;98.10
28530;DHT22;15737;49.760;6.632;2023-03-22T12:28:42;17.00;97.30
28530;DHT22;15737;49.760;6.632;2023-03-22T12:31:20;16.60;97.70
28530;DHT22;15737;49.760;6.632;2023-03-22T12:33:51;16.90;97.80
28530;DHT22;15737;49.760;6.632;2023-03-22T12:36:22;17.20;96.90
28530;DHT22;15737;49.760;6.632;2023-03-22T12:38:54;17.20;97.00
28530;DHT22;15737;49.760;6.632;2023-03-22T12:41:38;17.80;96.70
28530;DHT22;15737;49.760;6.632;2023-03-22T12:44:26;18.50;95.20
28530;DHT22;15737;49.760;6.632;2023-03-22T12:47:03;18.30;93.30
28530;DHT22;15737;49.760;6.632;2023-03-22T12:49:39;17.90;93.80
28530;DHT22;15737;49.760;6.632;2023-03-22T12:52:22;17.40;94.20
28530;DHT22;15737;49.760;6.632;2023-03-22T12:54:49;17.00;94.60
28530;DHT22;15737;49.760;6.632;2023-03-22T12:57:15;16.80;94.90
28530;DHT22;15737;49.760;6.632;2023-03-22T12:59:43;16.50;95.40
28530;DHT22;15737;49.760;6.632;2023-03-22T13:02:29;16.60;95.40
28530;DHT22;15737;49.760;6.632;2023-03-22T13:04:58;16.50;95.00
28530;DHT22;15737;49.760;6.632;2023-03-22T13:09:56;16.50;95.40
28530;DHT22;15737;49.760;6.632;2023-03-22T13:14:53;16.40;94.80
28530;DHT22;15737;49.760;6.632;2023-03-22T13:30:26;16.90;92.00
28530;DHT22;15737;49.760;6.632;2023-03-22T13:35:41;16.90;91.20
28530;DHT22;15737;49.760;6.632;2023-03-22T13:38:14;17.00;91.30
28530;DHT22;15737;49.760;6.632;2023-03-22T13:46:05;17.30;90.90
28530;DHT22;15737;49.760;6.632;2023-03-22T13:54:09;16.70;90.90
28530;DHT22;15737;49.760;6.632;2023-03-22T13:56:55;16.60;90.90
28530;DHT22;15737;49.760;6.632;2023-03-22T13:59:22;16.60;91.10
28530;DHT22;15737;49.760;6.632;2023-03-22T14:04:40;16.20;91.60
28530;DHT22;15737;49.760;6.632;2023-03-22T14:10:36;16.00;92.20
28530;DHT22;15737;49.760;6.632;2023-03-22T14:15:56;15.90;92.40
28530;DHT22;15737;49.760;6.632;2023-03-22T14:18:30;15.80;92.70
28530;DHT22;15737;49.760;6.632;2023-03-22T14:21:05;15.90;92.10
28530;DHT22;15737;49.760;6.632;2023-03-22T14:23:51;16.00;92.10
28530;DHT22;15737;49.760;6.632;2023-03-22T14:26:29;16.20;91.40
28530;DHT22;15737;49.760;6.632;2023-03-22T14:31:30;16.30;90.30
28530;DHT22;15737;49.760;6.632;2023-03-22T14:34:02;16.00;90.60
28530;DHT22;15737;49.760;6.632;2023-03-22T14:36:33;16.00;90.90
28530;DHT22;15737;49.760;6.632;2023-03-22T14:42:07;16.00;91.20
28530;DHT22;15737;49.760;6.632;2023-03-22T14:44:41;15.90;91.30
28530;DHT22;15737;49.760;6.632;2023-03-22T14:49:41;15.70;91.40
28530;DHT22;15737;49.760;6.632;2023-03-22T14:52:30;15.70;91.50
28530;DHT22;15737;49.760;6.632;2023-03-22T14:54:59;15.60;91.30
28530;DHT22;15737;49.760;6.632;2023-03-22T14:57:31;15.60;91.10
28530;DHT22;15737;49.760;6.632;2023-03-22T14:59:58;15.50;91.10
28530;DHT22;15737;49.760;6.632;2023-03-22T15:02:36;15.40;91.20
28530;DHT22;15737;49.760;6.632;2023-03-22T15:05:17;15.50;91.20
28530;DHT22;15737;49.760;6.632;2023-03-22T15:10:26;15.70;90.70
28530;DHT22;15737;49.760;6.632;2023-03-22T15:12:54;15.60;90.60
28530;DHT22;15737;49.760;6.632;2023-03-22T15:15:25;15.50;90.70
28530;DHT22;15737;49.760;6.632;2023-03-22T15:17:53;15.30;90.90
28530;DHT22;15737;49.760;6.632;2023-03-22T15:20:26;15.20;91.20
28530;DHT22;15737;49.760;6.632;2023-03-22T15:25:30;15.00;91.80
28530;DHT22;15737;49.760;6.632;2023-03-22T15:27:58;14.90;92.30
28530;DHT22;15737;49.760;6.632;2023-03-22T15:30:24;14.90;92.50
28530;DHT22;15737;49.760;6.632;2023-03-22T15:32:49;14.90;92.70
28530;DHT22;15737;49.760;6.632;2023-03-22T15:35:16;14.90;92.90
28530;DHT22;15737;49.760;6.632;2023-03-22T15:51:11;14.90;93.60
28530;DHT22;15737;49.760;6.632;2023-03-22T15:53:38;14.90;93.70
28530;DHT22;15737;49.760;6.632;2023-03-22T15:56:04;14.90;93.80
28530;DHT22;15737;49.760;6.632;2023-03-22T16:03:49;14.80;94.00
28530;DHT22;15737;49.760;6.632;2023-03-22T16:06:36;14.90;94.10
28530;DHT22;15737;49.760;6.632;2023-03-22T16:09:23;14.90;94.20
28530;DHT22;15737;49.760;6.632;2023-03-22T16:14:25;14.90;94.00
28530;DHT22;15737;49.760;6.632;2023-03-22T16:16:51;14.80;94.10
28530;DHT22;15737;49.760;6.632;2023-03-22T16:19:18;14.70;94.20
28530;DHT22;15737;49.760;6.632;2023-03-22T16:21:43;14.60;94.30
28530;DHT22;15737;49.760;6.632;2023-03-22T16:29:19;14.50;94.60
28530;DHT22;15737;49.760;6.632;2023-03-22T16:31:45;14.40;94.70
28530;DHT22;15737;49.760;6.632;2023-03-22T16:34:10;14.40;94.90
28530;DHT22;15737;49.760;6.632;2023-03-22T16:36:36;14.40;95.10
28530;DHT22;15737;49.760;6.632;2023-03-22T16:39:03;14.40;95.30
28530;DHT22;15737;49.760;6.632;2023-03-22T16:41:29;14.30;95.30
28530;DHT22;15737;49.760;6.632;2023-03-22T16:46:45;14.30;95.70
28530;DHT22;15737;49.760;6.632;2023-03-22T16:54:29;14.20;96.30
28530;DHT22;15737;49.760;6.632;2023-03-22T16:56:57;14.20;96.40
28530;DHT22;15737;49.760;6.632;2023-03-22T16:59:26;14.10;96.60
28530;DHT22;15737;49.760;6.632;2023-03-22T17:01:51;14.10;96.70
28530;DHT22;15737;49.760;6.632;2023-03-22T17:09:26;14.00;97.10
28530;DHT22;15737;49.760;6.632;2023-03-22T17:11:54;14.00;97.20
28530;DHT22;15737;49.760;6.632;2023-03-22T17:14:20;13.90;97.30
28530;DHT22;15737;49.760;6.632;2023-03-22T17:16:45;13.90;97.50
28530;DHT22;15737;49.760;6.632;2023-03-22T17:21:52;13.80;97.80
28530;DHT22;15737;49.760;6.632;2023-03-22T17:24:20;13.80;98.00
28530;DHT22;15737;49.760;6.632;2023-03-22T17:26:49;13.80;98.10
28530;DHT22;15737;49.760;6.632;2023-03-22T17:29:40;13.80;98.30
28530;DHT22;15737;49.760;6.632;2023-03-22T17:32:10;13.70;98.50
28530;DHT22;15737;49.760;6.632;2023-03-22T17:34:59;13.70;98.70
28530;DHT22;15737;49.760;6.632;2023-03-22T17:37:26;13.70;98.70
28530;DHT22;15737;49.760;6.632;2023-03-22T17:39:53;13.70;99.00
28530;DHT22;15737;49.760;6.632;2023-03-22T17:42:18;13.60;99.00
28530;DHT22;15737;49.760;6.632;2023-03-22T17:44:44;13.60;99.20
28530;DHT22;15737;49.760;6.632;2023-03-22T17:47:09;13.60;99.40
28530;DHT22;15737;49.760;6.632;2023-03-22T17:57:15;13.50;99.90
28530;DHT22;15737;49.760;6.632;2023-03-22T17:59:41;13.40;99.90
28530;DHT22;15737;49.760;6.632;2023-03-22T18:02:15;13.50;99.90
28530;DHT22;15737;49.760;6.632;2023-03-22T18:04:42;13.40;99.90
28530;DHT22;15737;49.760;6.632;2023-03-22T18:07:22;13.40;99.90
28530;DHT22;15737;49.760;6.632;2023-03-22T18:09:48;13.40;99.90
28530;DHT22;15737;49.760;6.632;2023-03-22T18:12:14;13.40;99.90
28530;DHT22;15737;49.760;6.632;2023-03-22T18:14:40;13.50;99.90
28530;DHT22;15737;49.760;6.632;2023-03-22T18:17:05;13.40;99.90
28530;DHT22;15737;49.760;6.632;2023-03-22T18:19:52;13.40;99.90
28530;DHT22;15737;49.760;6.632;2023-03-22T18:22:48;13.40;99.90
28530;DHT22;15737;49.760;6.632;2023-03-22T18:25:16;13.40;99.90
28530;DHT22;15737;49.760;6.632;2023-03-22T18:27:43;13.30;99.90
28530;DHT22;15737;49.760;6.632;2023-03-22T18:30:10;13.30;99.90
28530;DHT22;15737;49.760;6.632;2023-03-22T18:32:36;13.30;99.90
28530;DHT22;15737;49.760;6.632;2023-03-22T18:35:13;13.30;99.90
28530;DHT22;15737;49.760;6.632;2023-03-22T18:37:39;13.30;99.90
28530;DHT22;15737;49.760;6.632;2023-03-22T18:40:08;13.30;99.90
28530;DHT22;15737;49.760;6.632;2023-03-22T18:42:41;13.30;99.90
28530;DHT22;15737;49.760;6.632;2023-03-22T18:45:09;13.30;99.90
28530;DHT22;15737;49.760;6.632;2023-03-22T18:47:38;13.20;99.90
28530;DHT22;15737;49.760;6.632;2023-03-22T18:50:05;13.20;99.90